createdAt,value
2023-04-04T00:00:58.700Z,3.68
2023-04-04T00:04:20.736Z,3.68
2023-04-04T00:07:35.691Z,3.63
2023-04-04T00:10:50.730Z,3.58
2023-04-04T00:13:52.701Z,3.64
2023-04-04T00:17:07.720Z,3.68
2023-04-04T00:20:10.223Z,3.50
2023-04-04T00:23:24.713Z,3.60
2023-04-04T00:26:34.358Z,3.57
2023-04-04T00:29:49.719Z,3.59
2023-04-04T00:32:51.802Z,3.56
2023-04-04T00:36:06.793Z,3.60
2023-04-04T00:39:21.706Z,3.65
2023-04-04T00:42:23.639Z,3.54
2023-04-04T00:45:38.799Z,3.52
2023-04-04T00:48:42.394Z,3.47
2023-04-04T00:51:57.705Z,3.52
2023-04-04T00:55:13.707Z,3.56
2023-04-04T00:58:15.962Z,3.54
2023-04-04T01:01:30.708Z,3.42
2023-04-04T01:04:39.227Z,3.43
2023-04-04T01:07:54.679Z,3.38
2023-04-04T01:11:03.882Z,3.41
2023-04-04T01:14:12.709Z,3.29
2023-04-04T01:17:28.783Z,3.36
2023-04-04T01:20:34.101Z,3.35
2023-04-04T01:23:58.695Z,3.42
2023-04-04T01:27:07.353Z,3.36
2023-04-04T01:30:16.712Z,3.30
2023-04-04T01:33:42.951Z,3.25
2023-04-04T01:37:04.700Z,3.28
2023-04-04T01:40:27.693Z,3.17
2023-04-04T01:43:42.688Z,3.13
2023-04-04T01:46:51.695Z,3.15
2023-04-04T01:50:06.733Z,3.22
2023-04-04T01:57:22.759Z,3.18
2023-04-04T02:00:37.764Z,2.89
2023-04-04T02:03:39.861Z,3.08
2023-04-04T02:06:54.804Z,2.98
2023-04-04T02:10:04.086Z,2.95
2023-04-04T02:13:12.741Z,2.94
2023-04-04T02:16:27.755Z,2.96
2023-04-04T02:19:43.733Z,2.83
2023-04-04T02:23:02.733Z,2.86
2023-04-04T02:26:17.724Z,2.86
2023-04-04T02:29:20.038Z,2.66
2023-04-04T02:32:34.765Z,2.79
2023-04-04T02:35:43.745Z,2.65
2023-04-04T02:38:59.721Z,2.80
2023-04-04T02:42:08.432Z,2.70
2023-04-04T02:45:23.712Z,2.79
2023-04-04T02:48:38.774Z,2.72
2023-04-04T02:51:47.479Z,2.69
2023-04-04T02:54:55.756Z,2.71
2023-04-04T02:58:04.563Z,2.70
2023-04-04T03:01:19.805Z,2.69
2023-04-04T03:04:35.738Z,2.65
2023-04-04T03:07:44.448Z,2.70
2023-04-04T03:10:59.721Z,2.66
2023-04-04T03:14:08.332Z,2.70
2023-04-04T03:17:22.805Z,2.68
2023-04-04T03:20:31.742Z,2.70
2023-04-04T03:23:40.823Z,2.73
2023-04-04T03:26:49.752Z,2.68
2023-04-04T03:29:58.890Z,2.63
2023-04-04T03:33:14.749Z,2.70
2023-04-04T03:36:23.732Z,2.64
2023-04-04T03:39:32.554Z,2.53
2023-04-04T03:42:41.740Z,2.60
2023-04-04T03:45:56.848Z,2.56
2023-04-04T03:49:11.737Z,2.62
2023-04-04T03:52:13.757Z,2.66
2023-04-04T03:55:28.738Z,2.57
2023-04-04T03:58:30.794Z,2.62
2023-04-04T04:01:45.741Z,2.64
2023-04-04T04:05:00.759Z,2.67
2023-04-04T04:08:15.710Z,2.62
2023-04-04T04:11:24.502Z,2.59
2023-04-04T04:14:33.752Z,2.64
2023-04-04T04:17:48.835Z,2.62
2023-04-04T04:21:07.735Z,2.60
2023-04-04T04:24:09.897Z,2.55
2023-04-04T04:27:24.738Z,2.62
2023-04-04T04:30:39.998Z,2.51
2023-04-04T04:33:42.352Z,2.55
2023-04-04T04:37:04.779Z,2.42
2023-04-04T04:40:07.430Z,2.46
2023-04-04T04:43:22.759Z,2.54
2023-04-04T04:46:31.824Z,2.57
2023-04-04T04:49:40.362Z,2.53
2023-04-04T04:52:48.727Z,2.59
2023-04-04T04:56:03.766Z,2.59
2023-04-04T04:59:18.807Z,2.55
2023-04-04T05:02:27.899Z,2.43
2023-04-04T05:05:43.607Z,2.50
2023-04-04T05:08:58.742Z,2.32
2023-04-04T05:12:13.738Z,2.53
2023-04-04T05:15:22.372Z,2.55
2023-04-04T05:18:30.743Z,2.59
2023-04-04T05:21:45.717Z,2.60
2023-04-04T05:25:00.732Z,2.69
2023-04-04T05:28:02.719Z,2.82
2023-04-04T05:31:17.727Z,3.00
2023-04-04T05:34:26.414Z,3.00
2023-04-04T05:37:45.738Z,2.96
2023-04-04T05:40:54.689Z,2.97
2023-04-04T05:44:09.724Z,2.94
2023-04-04T05:47:18.368Z,2.99
2023-04-04T05:50:33.732Z,2.92
2023-04-04T05:53:42.728Z,2.84
2023-04-04T05:56:51.365Z,2.86
2023-04-04T05:59:59.719Z,3.08
2023-04-04T06:03:08.785Z,3.09
2023-04-04T06:10:03.813Z,3.39
2023-04-04T06:17:27.741Z,3.80
2023-04-04T06:20:36.946Z,4.01
2023-04-04T06:23:51.716Z,4.19
2023-04-04T06:27:00.355Z,4.16
2023-04-04T06:30:16.717Z,4.27
2023-04-04T06:33:31.735Z,4.24
2023-04-04T06:36:46.730Z,4.14
2023-04-04T06:39:55.712Z,4.15
2023-04-04T06:43:22.747Z,4.20
2023-04-04T06:46:37.773Z,4.27
2023-04-04T06:49:46.741Z,4.48
2023-04-04T06:53:02.706Z,4.44
2023-04-04T06:56:05.257Z,4.23
2023-04-04T06:59:19.766Z,4.36
2023-04-04T07:02:34.756Z,4.27
2023-04-04T07:05:56.712Z,4.24
2023-04-04T07:09:07.131Z,4.44
2023-04-04T07:12:17.702Z,4.57
2023-04-04T07:15:32.725Z,4.46
2023-04-04T07:18:47.704Z,4.38
2023-04-04T07:21:49.998Z,4.40
2023-04-04T07:25:04.706Z,4.52
2023-04-04T07:28:13.841Z,4.77
2023-04-04T07:31:22.403Z,4.68
2023-04-04T07:34:37.741Z,4.59
2023-04-04T07:37:52.706Z,4.96
2023-04-04T07:40:56.265Z,5.38
2023-04-04T07:44:12.817Z,5.51
2023-04-04T07:55:14.032Z,5.36
2023-04-04T07:58:23.546Z,5.30
2023-04-04T08:01:39.815Z,5.10
2023-04-04T08:04:56.123Z,5.26
2023-04-04T08:08:10.712Z,5.58
2023-04-04T08:11:20.051Z,5.53
2023-04-04T08:14:29.141Z,5.33
2023-04-04T08:17:44.951Z,5.76
2023-04-04T08:20:54.047Z,5.71
2023-04-04T08:24:02.970Z,6.24
2023-04-04T08:27:18.962Z,6.05
2023-04-04T08:30:21.354Z,6.05
2023-04-04T08:33:46.728Z,6.03
2023-04-04T08:37:04.082Z,5.35
2023-04-04T08:40:08.028Z,5.95
2023-04-04T08:43:24.882Z,6.07
2023-04-04T08:46:34.756Z,6.26
2023-04-04T08:49:51.695Z,6.41
2023-04-04T08:53:06.701Z,6.63
2023-04-04T08:56:20.419Z,6.93
2023-04-04T08:59:38.777Z,6.92
2023-04-04T09:03:07.521Z,7.22
2023-04-04T09:06:31.769Z,7.18
2023-04-04T09:09:50.698Z,7.18
2023-04-04T09:12:55.497Z,7.12
2023-04-04T09:16:12.778Z,6.94
2023-04-04T09:19:29.143Z,7.31
2023-04-04T09:22:46.608Z,7.07
2023-04-04T09:26:04.346Z,7.32
2023-04-04T09:29:19.374Z,7.80
2023-04-04T09:32:35.723Z,7.91
2023-04-04T09:35:45.739Z,7.70
2023-04-04T09:39:00.731Z,7.56
2023-04-04T09:42:06.180Z,7.86
2023-04-04T09:45:31.945Z,7.68
2023-04-04T09:48:42.750Z,7.75
2023-04-04T09:52:01.721Z,7.86
2023-04-04T09:55:12.703Z,7.66
2023-04-04T09:58:29.091Z,7.70
2023-04-04T10:01:37.789Z,7.94
2023-04-04T10:05:05.137Z,7.99
2023-04-04T10:08:21.703Z,7.58
2023-04-04T10:11:40.704Z,7.91
2023-04-04T10:14:56.684Z,8.21
2023-04-04T10:18:00.179Z,8.16
2023-04-04T10:21:16.209Z,8.63
2023-04-04T10:24:30.723Z,8.89
2023-04-04T10:27:33.744Z,9.00
2023-04-04T10:31:05.906Z,8.68
2023-04-04T10:34:39.738Z,8.87
2023-04-04T10:38:02.879Z,8.80
2023-04-04T10:41:13.741Z,8.79
2023-04-04T10:44:39.509Z,8.58
2023-04-04T10:47:54.756Z,9.01
2023-04-04T10:51:04.732Z,9.08
2023-04-04T10:54:15.305Z,8.80
2023-04-04T10:57:25.168Z,8.74
2023-04-04T11:00:49.891Z,8.91
2023-04-04T11:04:39.384Z,9.14
2023-04-04T11:11:22.679Z,9.69
2023-04-04T11:14:36.902Z,9.87
2023-04-04T11:18:00.001Z,10.19
2023-04-04T11:21:26.995Z,9.66
2023-04-04T11:24:29.349Z,10.01
2023-04-04T11:27:48.773Z,10.04
2023-04-04T11:31:17.497Z,9.98
2023-04-04T11:34:38.718Z,10.02
2023-04-04T11:37:53.379Z,9.37
2023-04-04T11:41:08.716Z,9.67
2023-04-04T11:48:15.733Z,10.01
2023-04-04T11:51:32.832Z,10.00
2023-04-04T11:54:43.710Z,10.12
2023-04-04T11:58:21.685Z,10.63
2023-04-04T12:01:40.721Z,10.63
2023-04-04T12:04:58.797Z,10.59
2023-04-04T12:08:09.299Z,10.37
2023-04-04T12:11:25.551Z,10.13
2023-04-04T12:14:27.581Z,9.66
2023-04-04T12:17:46.758Z,9.45
2023-04-04T12:20:51.468Z,9.59
2023-04-04T12:24:09.696Z,9.59
2023-04-04T12:27:24.711Z,10.00
2023-04-04T12:30:27.246Z,10.24
2023-04-04T12:33:42.736Z,10.29
2023-04-04T12:36:58.487Z,10.15
2023-04-04T12:40:17.736Z,10.05
2023-04-04T12:43:26.693Z,10.34
2023-04-04T12:46:44.485Z,10.40
2023-04-04T12:50:01.723Z,10.42
2023-04-04T12:56:40.692Z,9.96
2023-04-04T12:59:55.736Z,10.01
2023-04-04T13:03:04.730Z,10.15
2023-04-04T13:06:20.599Z,10.24
2023-04-04T13:09:37.091Z,10.07
2023-04-04T13:13:05.816Z,9.70
2023-04-04T13:16:34.985Z,9.88
2023-04-04T13:19:49.700Z,10.21
2023-04-04T13:22:51.730Z,10.34
2023-04-04T13:26:06.702Z,10.25
2023-04-04T13:29:15.717Z,10.06
2023-04-04T13:32:31.188Z,10.13
2023-04-04T13:39:50.058Z,10.13
2023-04-04T13:43:05.718Z,10.15
2023-04-04T13:46:15.494Z,10.40
2023-04-04T13:53:15.727Z,10.48
2023-04-04T13:56:30.763Z,10.27
2023-04-04T14:03:30.771Z,10.36
2023-04-04T14:06:46.013Z,10.44
2023-04-04T14:10:00.809Z,10.40
2023-04-04T14:13:11.001Z,10.48
2023-04-04T14:16:25.813Z,10.50
2023-04-04T14:19:34.749Z,10.46
2023-04-04T14:22:43.381Z,10.44
2023-04-04T14:25:58.731Z,10.47
2023-04-04T14:29:07.489Z,10.54
2023-04-04T14:32:17.741Z,10.75
2023-04-04T14:35:32.757Z,10.67
2023-04-04T14:38:34.742Z,10.57
2023-04-04T14:41:49.747Z,10.33
2023-04-04T14:44:58.906Z,10.30
2023-04-04T14:48:13.757Z,10.24
2023-04-04T14:51:28.842Z,10.01
2023-04-04T14:54:37.749Z,9.94
2023-04-04T14:58:01.358Z,9.95
2023-04-04T15:01:11.743Z,9.98
2023-04-04T15:04:20.625Z,9.92
2023-04-04T15:07:35.738Z,9.77
2023-04-04T15:10:44.765Z,9.56
2023-04-04T15:13:53.549Z,9.46
2023-04-04T15:17:08.752Z,9.57
2023-04-04T15:20:12.357Z,9.69
2023-04-04T15:23:27.729Z,9.43
2023-04-04T15:26:29.750Z,9.19
2023-04-04T15:29:44.756Z,9.35
2023-04-04T15:32:54.380Z,9.41
2023-04-04T15:36:09.724Z,9.37
2023-04-04T15:39:18.736Z,9.53
2023-04-04T15:42:27.543Z,9.43
2023-04-04T15:45:42.808Z,9.25
2023-04-04T15:48:57.769Z,9.27
2023-04-04T15:52:06.385Z,9.12
2023-04-04T15:55:21.942Z,9.20
2023-04-04T15:58:30.451Z,9.12
2023-04-04T16:01:57.724Z,8.87
2023-04-04T16:05:19.727Z,8.61
2023-04-04T16:08:34.735Z,8.57
2023-04-04T16:11:36.761Z,8.53
2023-04-04T16:14:51.714Z,8.43
2023-04-04T16:17:53.922Z,8.44
2023-04-04T16:21:09.762Z,8.47
2023-04-04T16:24:24.711Z,8.28
2023-04-04T16:27:39.718Z,8.11
2023-04-04T16:30:48.980Z,8.09
2023-04-04T16:33:57.769Z,8.14
2023-04-04T16:37:12.812Z,8.03
2023-04-04T16:40:15.574Z,8.02
2023-04-04T16:43:30.725Z,7.99
2023-04-04T16:46:39.464Z,7.80
2023-04-04T16:49:55.739Z,7.82
2023-04-04T16:53:04.417Z,7.63
2023-04-04T16:56:19.713Z,7.46
2023-04-04T16:59:28.529Z,7.46
2023-04-04T17:02:36.774Z,7.43
2023-04-04T17:05:52.012Z,7.37
2023-04-04T17:09:00.784Z,7.33
2023-04-04T17:12:09.549Z,7.34
2023-04-04T17:15:24.747Z,7.22
2023-04-04T17:18:39.786Z,7.17
2023-04-04T17:21:48.421Z,7.14
2023-04-04T17:24:57.718Z,7.04
2023-04-04T17:28:12.722Z,6.97
2023-04-04T17:31:27.772Z,6.99
2023-04-04T17:34:29.798Z,6.95
2023-04-04T17:37:44.725Z,6.97
2023-04-04T17:40:54.085Z,6.96
2023-04-04T17:44:02.709Z,6.92
2023-04-04T17:47:17.724Z,7.06
2023-04-04T17:50:26.704Z,7.12
2023-04-04T17:53:35.720Z,7.12
2023-04-04T17:56:45.261Z,6.95
2023-04-04T17:59:54.251Z,7.00
2023-04-04T18:03:09.944Z,6.86
2023-04-04T18:06:33.769Z,6.91
2023-04-04T18:09:42.714Z,6.75
2023-04-04T18:12:51.984Z,6.69
2023-04-04T18:16:03.489Z,6.70
2023-04-04T18:19:18.752Z,6.60
2023-04-04T18:22:27.549Z,6.56
2023-04-04T18:25:42.728Z,6.48
2023-04-04T18:28:45.117Z,6.39
2023-04-04T18:31:59.887Z,6.28
2023-04-04T18:35:16.162Z,6.15
2023-04-04T18:38:30.741Z,6.21
2023-04-04T18:41:45.989Z,6.13
2023-04-04T18:44:55.251Z,6.07
2023-04-04T18:48:03.949Z,5.96
2023-04-04T18:51:12.803Z,5.87
2023-04-04T18:54:28.856Z,5.67
2023-04-04T18:57:44.240Z,5.58
2023-04-04T19:00:52.881Z,5.52
2023-04-04T19:04:10.170Z,5.47
2023-04-04T19:07:33.199Z,5.47
2023-04-04T19:10:50.150Z,5.44
2023-04-04T19:14:05.863Z,5.36
2023-04-04T19:17:15.755Z,5.29
2023-04-04T19:20:25.064Z,5.26
2023-04-04T19:23:39.946Z,5.24
2023-04-04T19:26:55.178Z,5.18
2023-04-04T19:30:04.198Z,5.17
2023-04-04T19:33:22.196Z,5.09
2023-04-04T19:36:33.114Z,4.94
2023-04-04T19:39:42.107Z,4.94
2023-04-04T19:42:50.842Z,4.88
2023-04-04T19:46:14.969Z,4.72
2023-04-04T19:49:33.188Z,4.76
2023-04-04T19:52:37.220Z,4.76
2023-04-04T19:55:52.017Z,4.72
2023-04-04T19:59:10.697Z,4.63
2023-04-04T20:03:00.942Z,4.56
2023-04-04T20:06:19.138Z,4.50
2023-04-04T20:09:40.256Z,4.51
2023-04-04T20:12:48.542Z,4.47
2023-04-04T20:16:11.108Z,4.32
2023-04-04T20:19:13.789Z,4.27
2023-04-04T20:22:29.731Z,4.25
2023-04-04T20:25:48.710Z,4.14
2023-04-04T20:28:57.549Z,4.14
2023-04-04T20:32:11.998Z,4.07
2023-04-04T20:35:34.924Z,4.17
2023-04-04T20:38:50.775Z,4.08
2023-04-04T20:41:59.434Z,4.06
2023-04-04T20:45:33.115Z,4.07
2023-04-04T20:48:36.642Z,4.06
2023-04-04T20:51:51.749Z,4.03
2023-04-04T20:55:09.742Z,4.07
2023-04-04T20:58:38.712Z,4.02
2023-04-04T21:01:53.721Z,3.92
2023-04-04T21:05:02.751Z,4.01
2023-04-04T21:08:24.070Z,4.02
2023-04-04T21:11:38.722Z,4.02
2023-04-04T21:14:47.385Z,3.91
2023-04-04T21:17:56.790Z,3.89
2023-04-04T21:21:14.000Z,3.91
2023-04-04T21:24:29.705Z,3.87
2023-04-04T21:27:38.416Z,3.86
2023-04-04T21:30:51.731Z,3.83
2023-04-04T21:34:13.743Z,3.80
2023-04-04T21:37:22.962Z,3.72
2023-04-04T21:40:32.721Z,3.70
2023-04-04T21:43:41.417Z,3.70
2023-04-04T21:46:49.740Z,3.74
2023-04-04T21:50:04.741Z,3.70
2023-04-04T21:53:13.731Z,3.74
2023-04-04T21:56:22.854Z,3.53
2023-04-04T21:59:37.793Z,3.79
2023-04-04T22:02:39.870Z,3.74
2023-04-04T22:05:55.729Z,3.77
2023-04-04T22:09:11.719Z,3.69
2023-04-04T22:12:26.697Z,3.46
2023-04-04T22:15:28.914Z,3.55
2023-04-04T22:18:43.700Z,3.55
2023-04-04T22:21:52.281Z,3.48
2023-04-04T22:25:06.701Z,3.51
2023-04-04T22:28:15.409Z,3.44
2023-04-04T22:31:23.761Z,3.45
2023-04-04T22:34:32.313Z,3.26
2023-04-04T22:37:46.710Z,3.39
2023-04-04T22:41:03.698Z,3.45
2023-04-04T22:44:12.758Z,3.48
2023-04-04T22:47:21.268Z,3.48
2023-04-04T22:50:36.709Z,3.52
2023-04-04T22:53:38.642Z,3.49
2023-04-04T22:56:53.740Z,3.44
2023-04-04T23:00:09.738Z,3.43
2023-04-04T23:03:18.761Z,3.47
2023-04-04T23:06:33.707Z,3.52
2023-04-04T23:09:48.724Z,3.53
2023-04-04T23:13:04.709Z,3.52
2023-04-04T23:16:13.547Z,3.51
2023-04-04T23:19:29.712Z,3.49
2023-04-04T23:22:45.747Z,3.51
2023-04-04T23:25:54.733Z,3.49
2023-04-04T23:29:09.726Z,3.49
2023-04-04T23:32:12.368Z,3.46
2023-04-04T23:35:27.683Z,3.50
2023-04-04T23:38:42.750Z,3.49
2023-04-04T23:41:51.717Z,3.48
2023-04-04T23:45:00.378Z,3.45
2023-04-04T23:48:08.715Z,3.42
2023-04-04T23:51:23.850Z,3.44
2023-04-04T23:54:25.957Z,3.43
2023-04-04T23:57:40.730Z,3.44
